createdAt,value
2022-11-05T00:02:19.941Z,9.19
2022-11-05T00:08:21.926Z,9.11
2022-11-05T00:13:45.380Z,9.23
2022-11-05T00:19:21.548Z,9.12
2022-11-05T00:24:45.988Z,9.21
2022-11-05T00:29:54.608Z,9.10
2022-11-05T00:35:16.670Z,9.23
2022-11-05T00:40:48.842Z,9.12
2022-11-05T00:45:50.812Z,9.33
2022-11-05T00:50:58.028Z,9.33
2022-11-05T00:56:07.192Z,9.38
2022-11-05T01:06:31.539Z,9.52
2022-11-05T01:11:40.694Z,9.41
2022-11-05T01:16:53.835Z,9.48
2022-11-05T01:21:55.669Z,9.56
2022-11-05T01:27:07.247Z,9.54
2022-11-05T01:32:12.687Z,9.59
2022-11-05T01:45:20.296Z,9.62
2022-11-05T02:03:19.962Z,9.65
2022-11-05T02:09:13.914Z,9.67
2022-11-05T02:16:07.038Z,9.60
2022-11-05T02:21:39.877Z,9.68
2022-11-05T02:27:20.092Z,9.66
2022-11-05T02:33:08.973Z,9.66
2022-11-05T03:08:37.244Z,9.50
2022-11-05T03:51:07.817Z,9.21
2022-11-05T08:48:17.630Z,11.38
2022-11-05T09:39:12.467Z,11.83
2022-11-05T09:44:29.381Z,12.01
2022-11-05T10:03:43.083Z,11.82
2022-11-05T10:09:57.462Z,12.03
2022-11-05T10:15:40.994Z,12.22
2022-11-05T10:26:37.975Z,12.34
2022-11-05T10:31:52.414Z,12.30
2022-11-05T10:50:28.339Z,12.63
2022-11-05T10:55:40.669Z,12.74
2022-11-05T11:01:19.614Z,12.99
2022-11-05T11:06:38.061Z,13.04
2022-11-05T11:12:03.260Z,13.01
2022-11-05T11:23:04.556Z,13.11
2022-11-05T11:28:20.882Z,13.02
2022-11-05T11:39:02.439Z,13.07
2022-11-05T11:44:33.372Z,13.03
2022-11-05T11:49:49.916Z,13.09
2022-11-05T11:55:11.013Z,12.95
2022-11-05T12:00:31.878Z,12.87
2022-11-05T12:06:10.815Z,12.81
2022-11-05T12:12:14.077Z,12.70
2022-11-05T12:23:29.172Z,12.81
2022-11-05T12:29:17.836Z,12.78
2022-11-05T12:35:23.268Z,12.76
2022-11-05T12:40:51.987Z,12.83
2022-11-05T12:46:43.018Z,12.89
2022-11-05T12:58:58.068Z,12.87
2022-11-05T13:10:56.002Z,12.86
2022-11-05T13:16:16.551Z,12.79
2022-11-05T13:22:04.970Z,12.74
2022-11-05T13:28:05.780Z,12.79
2022-11-05T14:03:23.949Z,12.54
2022-11-05T14:08:45.588Z,12.55
2022-11-05T14:32:08.660Z,12.43
2022-11-05T14:37:39.806Z,12.38
2022-11-05T14:54:32.398Z,12.25
2022-11-05T15:06:01.694Z,12.10
2022-11-05T15:11:16.347Z,11.95
2022-11-05T15:22:56.512Z,11.86
2022-11-05T15:28:12.465Z,11.88
2022-11-05T15:33:41.421Z,11.83
2022-11-05T15:57:32.993Z,11.77
2022-11-05T16:02:36.805Z,11.64
2022-11-05T16:07:58.194Z,11.59
2022-11-05T16:19:20.518Z,11.57
2022-11-05T16:30:17.012Z,11.47
2022-11-05T16:42:00.993Z,11.46
2022-11-05T16:47:06.867Z,11.39
2022-11-05T16:52:09.782Z,11.36
2022-11-05T16:57:36.011Z,11.42
2022-11-05T17:02:38.086Z,11.46
2022-11-05T17:07:49.093Z,11.36
2022-11-05T17:13:15.283Z,11.38
2022-11-05T17:24:28.303Z,11.43
2022-11-05T17:40:56.007Z,11.39
2022-11-05T17:46:08.937Z,11.21
2022-11-05T17:51:19.330Z,11.25
2022-11-05T18:37:42.019Z,11.02
2022-11-05T18:43:04.193Z,10.95
2022-11-05T19:12:05.938Z,10.92
2022-11-05T19:17:27.985Z,10.92
2022-11-05T19:22:29.780Z,10.81
2022-11-05T19:33:36.907Z,10.89
2022-11-05T19:39:15.049Z,10.84
2022-11-05T19:44:40.471Z,10.82
2022-11-05T19:49:45.392Z,10.80
2022-11-05T19:54:54.891Z,10.79
2022-11-05T19:59:59.822Z,10.73
2022-11-05T20:05:01.938Z,10.69
2022-11-05T20:10:18.962Z,10.69
2022-11-05T20:21:25.649Z,10.43
2022-11-05T20:26:44.859Z,10.40
2022-11-05T20:31:47.195Z,10.39
2022-11-05T20:36:49.395Z,10.25
2022-11-05T20:53:26.368Z,10.08
2022-11-05T20:58:28.762Z,9.89
2022-11-05T21:03:40.226Z,9.91
2022-11-05T21:08:42.898Z,9.86
2022-11-05T21:13:59.564Z,9.78
2022-11-05T21:25:04.705Z,9.60
2022-11-05T21:30:15.321Z,9.63
2022-11-05T21:35:19.330Z,9.53
2022-11-05T21:40:28.517Z,9.43
2022-11-05T21:45:33.032Z,9.48
2022-11-05T21:51:02.972Z,9.39
2022-11-05T21:56:49.596Z,9.30
2022-11-05T22:02:02.897Z,9.32
2022-11-05T22:19:10.913Z,9.16
2022-11-05T22:24:13.047Z,9.11
2022-11-05T22:29:20.058Z,9.13
2022-11-05T22:34:27.679Z,9.13
2022-11-05T22:40:24.136Z,9.11
2022-11-05T22:46:24.385Z,8.99
2022-11-05T22:51:33.501Z,8.94
2022-11-05T22:57:01.463Z,8.89
2022-11-05T23:02:23.299Z,8.87
2022-11-05T23:08:12.563Z,8.84
2022-11-05T23:13:26.208Z,8.79
2022-11-05T23:24:54.958Z,8.63
2022-11-05T23:30:08.773Z,8.60
2022-11-05T23:35:50.714Z,8.48
2022-11-05T23:41:12.090Z,8.52
2022-11-05T23:46:53.478Z,8.46
2022-11-05T23:58:52.202Z,8.44
